Crew | Aerofun Virtual



 METAR AND TAF INFORMATION
METAR FOR LELO
ADDS - METARS form results

(0521 UTC 20 May 2019)
Data provider http://aviationweather.gov/metar/data/
 
METAR text: LELO 200500Z 23002KT 9999 FEW030 05/04 Q1015
Conditions at: LELO (LOGRONO/AGONCILL, ES) observed 0500 UTC 20 May 2019
Temperature: 5.0°C (41°F)
Dewpoint: 4.0°C (39°F) [RH = 93%]
Pressure (altimeter): 29.97 inches Hg (1015.0 mb)
Winds: from the SW (230 degrees) at 2 MPH (2 knots; 1.0 m/s)
Visibility: 6 or more miles (10+ km)
Ceiling: at least 12,000 feet AGL
Clouds: few clouds at 3000 feet AGL
Weather: no significant weather observed at this time

METAR text: LELO 200430Z 26005KT 9999 FEW035 05/04 Q1015
Conditions at: LELO (LOGRONO/AGONCILL, ES) observed 0430 UTC 20 May 2019
Temperature: 5.0°C (41°F)
Dewpoint: 4.0°C (39°F) [RH = 93%]
Pressure (altimeter): 29.97 inches Hg (1015.0 mb)
Winds: from the W (260 degrees) at 6 MPH (5 knots; 2.6 m/s)
Visibility: 6 or more miles (10+ km)
Ceiling: at least 12,000 feet AGL
Clouds: few clouds at 3500 feet AGL
Weather: no significant weather observed at this time

Forecast for: LELO (LOGRONO/AGONCILL, ES)
Text: TAF LELO 200200Z 2003/2012 VRB05KT 9999 FEW040
Forecast period: 0300 to 1200 UTC 20 May 2019
Forecast type: FROM: standard forecast or significant change
Winds: variable direction winds at 6 MPH (5 knots; 2.6 m/s)
Visibility: 6 or more miles 10+ km)
Ceiling: at least 12,000 feet AGL
Clouds: few clouds at 4000 feet AGL
Weather: no significant weather forecast for this period
Text: PROB30
Forecast period: 0300 to 0600 UTC 20 May 2019
Forecast type: TEMPORARY: The following changes expected for less than half the time period
Visibility: 2.49 miles (4.01 km)
Ceiling: unknown
Clouds: missing
Weather: BR  (mist)

 AIRPORT MAP

 RUNWAY INFORMATION

 AIRPORT FREQUENCIES

 AIRPORT NEAR NAVIGATION AIDS
Type NDB Name Logrono Frequency 399 KHZ